createdAt,value
2017-07-05T00:00:27.698Z,17.92
2017-07-05T00:01:41.839Z,17.97
2017-07-05T00:02:43.714Z,17.96
2017-07-05T00:03:45.603Z,17.96
2017-07-05T00:04:47.480Z,17.81
2017-07-05T00:05:49.306Z,17.82
2017-07-05T00:06:51.121Z,17.77
2017-07-05T00:07:53.019Z,17.72
2017-07-05T00:08:54.911Z,17.68
2017-07-05T00:09:56.805Z,17.64
2017-07-05T00:11:10.974Z,17.70
2017-07-05T00:12:12.871Z,17.66
2017-07-05T00:13:14.773Z,17.66
2017-07-05T00:14:16.663Z,17.66
2017-07-05T00:15:18.489Z,17.64
2017-07-05T00:16:20.298Z,17.64
2017-07-05T00:17:22.195Z,17.59
2017-07-05T00:18:24.093Z,17.68
2017-07-05T00:19:25.984Z,17.66
2017-07-05T00:20:40.148Z,17.74
2017-07-05T00:21:42.048Z,17.55
2017-07-05T00:22:43.934Z,17.54
2017-07-05T00:23:45.807Z,17.41
2017-07-05T00:24:47.648Z,17.49
2017-07-05T00:25:49.461Z,17.48
2017-07-05T00:26:51.353Z,17.46
2017-07-05T00:27:53.245Z,17.38
2017-07-05T00:28:55.112Z,17.37
2017-07-05T00:30:09.254Z,17.44
2017-07-05T00:31:11.149Z,17.34
2017-07-05T00:32:13.023Z,17.30
2017-07-05T00:33:14.889Z,17.34
2017-07-05T00:34:16.719Z,17.30
2017-07-05T00:35:18.523Z,17.38
2017-07-05T00:36:20.394Z,17.28
2017-07-05T00:37:22.296Z,17.30
2017-07-05T00:38:24.180Z,17.26
2017-07-05T00:39:38.349Z,17.28
2017-07-05T00:40:40.246Z,17.25
2017-07-05T00:41:42.140Z,17.21
2017-07-05T00:42:44.034Z,17.22
2017-07-05T00:43:45.868Z,17.23
2017-07-05T00:44:47.702Z,17.19
2017-07-05T00:45:49.599Z,17.22
2017-07-05T00:46:51.491Z,17.11
2017-07-05T00:47:53.357Z,17.14
2017-07-05T00:49:07.498Z,17.07
2017-07-05T00:50:09.392Z,17.11
2017-07-05T00:51:11.261Z,16.98
2017-07-05T00:52:13.134Z,17.01
2017-07-05T00:53:14.963Z,17.03
2017-07-05T00:54:16.771Z,16.89
2017-07-05T00:55:18.640Z,16.89
2017-07-05T00:56:20.516Z,16.89
2017-07-05T00:57:22.384Z,16.91
2017-07-05T00:58:36.545Z,16.89
2017-07-05T00:59:38.442Z,16.97
2017-07-05T01:00:40.331Z,16.96
2017-07-05T01:01:42.204Z,16.86
2017-07-05T01:02:44.040Z,16.83
2017-07-05T01:03:45.865Z,16.98
2017-07-05T01:04:47.757Z,16.97
2017-07-05T01:05:49.650Z,16.93
2017-07-05T01:06:51.516Z,16.96
2017-07-05T01:08:05.659Z,16.86
2017-07-05T01:09:07.549Z,16.86
2017-07-05T01:10:09.419Z,16.85
2017-07-05T01:11:11.298Z,16.81
2017-07-05T01:12:13.123Z,16.86
2017-07-05T01:13:14.936Z,16.86
2017-07-05T01:14:16.810Z,16.85
2017-07-05T01:15:18.705Z,16.73
2017-07-05T01:16:20.596Z,16.78
2017-07-05T01:17:34.762Z,16.78
2017-07-05T01:18:36.629Z,16.63
2017-07-05T01:19:38.527Z,16.70
2017-07-05T01:20:40.423Z,16.67
2017-07-05T01:21:42.258Z,16.71
2017-07-05T01:22:44.092Z,16.67
2017-07-05T01:23:45.986Z,16.68
2017-07-05T01:24:47.854Z,16.66
2017-07-05T01:25:49.748Z,16.68
2017-07-05T01:27:03.912Z,16.64
2017-07-05T01:28:05.810Z,16.61
2017-07-05T01:29:07.698Z,16.67
2017-07-05T01:30:09.566Z,16.67
2017-07-05T01:31:11.377Z,16.61
2017-07-05T01:32:13.207Z,16.63
2017-07-05T01:33:15.078Z,16.63
2017-07-05T01:34:16.972Z,16.68
2017-07-05T01:35:18.855Z,16.66
2017-07-05T01:36:33.004Z,16.63
2017-07-05T01:37:34.900Z,16.63
2017-07-05T01:38:36.792Z,16.60
2017-07-05T01:39:38.656Z,16.58
2017-07-05T01:40:40.483Z,16.63
2017-07-05T01:41:42.291Z,16.66
2017-07-05T01:42:44.160Z,16.48
2017-07-05T01:43:46.056Z,16.49
2017-07-05T01:44:47.922Z,16.63
2017-07-05T01:46:02.062Z,16.63
2017-07-05T01:47:03.934Z,16.60
2017-07-05T01:48:05.823Z,16.63
2017-07-05T01:49:07.694Z,16.61
2017-07-05T01:50:09.527Z,16.60
2017-07-05T01:51:11.353Z,16.63
2017-07-05T01:52:13.219Z,16.56
2017-07-05T01:53:15.085Z,16.52
2017-07-05T01:54:16.951Z,16.52
2017-07-05T01:55:31.163Z,16.43
2017-07-05T01:56:33.034Z,16.42
2017-07-05T01:57:34.931Z,16.42
2017-07-05T01:58:36.822Z,16.48
2017-07-05T01:59:38.655Z,16.48
2017-07-05T02:00:40.485Z,16.41
2017-07-05T02:01:42.372Z,16.38
2017-07-05T02:02:44.280Z,16.48
2017-07-05T02:03:46.135Z,16.42
2017-07-05T02:05:00.383Z,16.41
2017-07-05T02:06:02.216Z,16.31
2017-07-05T02:07:04.076Z,16.35
2017-07-05T02:08:05.946Z,16.27
2017-07-05T02:09:07.758Z,16.27
2017-07-05T02:10:09.580Z,16.33
2017-07-05T02:11:11.446Z,16.31
2017-07-05T02:12:13.318Z,16.25
2017-07-05T02:13:15.207Z,16.28
2017-07-05T02:14:29.351Z,16.33
2017-07-05T02:15:31.245Z,16.23
2017-07-05T02:16:33.138Z,16.31
2017-07-05T02:17:35.027Z,16.35
2017-07-05T02:18:36.829Z,16.27
2017-07-05T02:19:38.637Z,16.30
2017-07-05T02:20:40.530Z,16.39
2017-07-05T02:21:42.420Z,16.38
2017-07-05T02:22:44.285Z,16.41
2017-07-05T02:23:58.459Z,16.34
2017-07-05T02:25:00.349Z,16.42
2017-07-05T02:26:02.218Z,16.45
2017-07-05T02:27:04.091Z,16.39
2017-07-05T02:28:05.898Z,16.28
2017-07-05T02:29:07.708Z,16.42
2017-07-05T02:30:09.579Z,16.24
2017-07-05T02:31:11.473Z,16.34
2017-07-05T02:32:13.366Z,16.28
2017-07-05T02:33:27.538Z,16.31
2017-07-05T02:34:29.431Z,16.21
2017-07-05T02:35:31.316Z,16.28
2017-07-05T02:36:33.180Z,16.23
2017-07-05T02:37:34.991Z,16.23
2017-07-05T02:38:36.799Z,16.21
2017-07-05T02:39:38.689Z,16.20
2017-07-05T02:40:40.585Z,16.14
2017-07-05T02:41:42.470Z,16.12
2017-07-05T02:42:56.614Z,16.15
2017-07-05T02:43:58.483Z,16.14
2017-07-05T02:45:00.346Z,16.12
2017-07-05T02:46:02.328Z,16.09
2017-07-05T02:47:04.225Z,16.21
2017-07-05T02:48:06.053Z,16.24
2017-07-05T02:49:07.892Z,16.33
2017-07-05T02:50:09.722Z,16.21
2017-07-05T02:51:11.549Z,16.34
2017-07-05T02:52:25.698Z,16.34
2017-07-05T02:53:27.598Z,16.34
2017-07-05T02:54:29.490Z,16.35
2017-07-05T02:55:31.381Z,16.48
2017-07-05T02:56:33.213Z,16.46
2017-07-05T02:57:35.046Z,16.50
2017-07-05T02:58:36.934Z,16.56
2017-07-05T02:59:38.804Z,16.45
2017-07-05T03:00:40.701Z,16.57
2017-07-05T03:01:54.848Z,16.58
2017-07-05T03:02:56.721Z,16.56
2017-07-05T03:03:58.615Z,16.58
2017-07-05T03:05:00.488Z,16.45
2017-07-05T03:06:02.328Z,16.60
2017-07-05T03:07:04.140Z,16.61
2017-07-05T03:08:06.007Z,16.57
2017-07-05T03:09:07.899Z,16.71
2017-07-05T03:10:09.776Z,16.73
2017-07-05T03:11:23.943Z,16.78
2017-07-05T03:12:25.807Z,16.73
2017-07-05T03:13:27.680Z,16.71
2017-07-05T03:14:29.571Z,16.73
2017-07-05T03:15:31.388Z,16.71
2017-07-05T03:16:33.221Z,16.78
2017-07-05T03:17:35.118Z,16.83
2017-07-05T03:18:37.011Z,16.88
2017-07-05T03:19:38.887Z,16.83
2017-07-05T03:20:53.090Z,16.79
2017-07-05T03:21:54.922Z,16.91
2017-07-05T03:22:56.753Z,17.01
2017-07-05T03:23:58.626Z,16.98
2017-07-05T03:25:00.491Z,16.96
2017-07-05T03:26:02.339Z,16.98
2017-07-05T03:27:04.143Z,16.98
2017-07-05T03:28:05.979Z,17.03
2017-07-05T03:29:07.874Z,17.04
2017-07-05T03:30:22.085Z,17.08
2017-07-05T03:31:23.949Z,17.04
2017-07-05T03:32:25.821Z,17.03
2017-07-05T03:33:27.713Z,17.14
2017-07-05T03:34:29.526Z,17.15
2017-07-05T03:35:31.359Z,17.15
2017-07-05T03:36:33.229Z,17.18
2017-07-05T03:37:35.106Z,17.18
2017-07-05T03:38:37.004Z,17.15
2017-07-05T03:39:51.141Z,17.14
2017-07-05T03:40:53.010Z,17.22
2017-07-05T03:41:54.882Z,17.15
2017-07-05T03:42:56.750Z,17.22
2017-07-05T03:43:58.584Z,17.31
2017-07-05T03:45:00.408Z,17.31
2017-07-05T03:46:02.287Z,17.30
2017-07-05T03:47:04.156Z,17.23
2017-07-05T03:48:06.048Z,17.19
2017-07-05T03:49:20.196Z,17.18
2017-07-05T03:50:22.069Z,17.08
2017-07-05T03:51:23.967Z,17.11
2017-07-05T03:52:25.861Z,17.04
2017-07-05T03:53:27.700Z,17.12
2017-07-05T03:54:29.533Z,17.11
2017-07-05T03:55:31.403Z,17.23
2017-07-05T03:56:33.298Z,17.26
2017-07-05T03:57:35.200Z,17.38
2017-07-05T03:58:49.369Z,17.48
2017-07-05T03:59:51.240Z,17.34
2017-07-05T04:00:53.133Z,17.41
2017-07-05T04:01:55.007Z,17.40
2017-07-05T04:02:56.843Z,17.55
2017-07-05T04:03:58.676Z,17.51
2017-07-05T04:05:00.570Z,17.62
2017-07-05T04:06:02.444Z,17.59
2017-07-05T04:07:04.313Z,17.63
2017-07-05T04:08:18.468Z,17.59
2017-07-05T04:09:20.364Z,17.59
2017-07-05T04:10:22.261Z,17.52
2017-07-05T04:11:24.137Z,17.49
2017-07-05T04:12:25.974Z,17.48
2017-07-05T04:13:27.783Z,17.38
2017-07-05T04:14:29.658Z,17.44
2017-07-05T04:15:31.557Z,17.43
2017-07-05T04:16:33.457Z,17.56
2017-07-05T04:17:47.633Z,17.55
2017-07-05T04:18:49.534Z,17.66
2017-07-05T04:19:51.404Z,17.56
2017-07-05T04:20:53.274Z,17.64
2017-07-05T04:21:55.088Z,17.58
2017-07-05T04:22:56.926Z,17.62
2017-07-05T04:23:58.800Z,17.58
2017-07-05T04:25:00.696Z,17.48
2017-07-05T04:26:02.595Z,17.59
2017-07-05T04:27:16.768Z,17.49
2017-07-05T04:28:18.641Z,17.59
2017-07-05T04:29:20.541Z,17.64
2017-07-05T04:30:22.435Z,17.63
2017-07-05T04:31:24.252Z,17.63
2017-07-05T04:32:26.088Z,17.70
2017-07-05T04:33:27.963Z,17.63
2017-07-05T04:34:29.861Z,17.64
2017-07-05T04:35:31.760Z,17.72
2017-07-05T04:36:45.933Z,17.66
2017-07-05T04:37:47.805Z,17.68
2017-07-05T04:38:49.677Z,17.71
2017-07-05T04:39:51.576Z,17.63
2017-07-05T04:40:53.410Z,17.63
2017-07-05T04:41:55.225Z,17.72
2017-07-05T04:42:57.096Z,17.86
2017-07-05T04:43:58.972Z,17.84
2017-07-05T04:45:00.870Z,17.86
2017-07-05T04:46:15.080Z,17.82
2017-07-05T04:47:16.958Z,17.84
2017-07-05T04:48:18.857Z,17.79
2017-07-05T04:49:20.759Z,17.78
2017-07-05T04:50:22.568Z,17.93
2017-07-05T04:51:24.402Z,17.96
2017-07-05T04:52:26.308Z,18.14
2017-07-05T04:53:28.207Z,18.23
2017-07-05T04:54:30.108Z,18.14
2017-07-05T04:55:44.285Z,18.25
2017-07-05T04:56:46.162Z,18.35
2017-07-05T04:57:48.040Z,18.47
2017-07-05T04:58:49.914Z,18.47
2017-07-05T04:59:51.728Z,18.55
2017-07-05T05:00:53.565Z,18.57
2017-07-05T05:01:55.464Z,18.57
2017-07-05T05:02:57.363Z,18.65
2017-07-05T05:03:59.263Z,18.69
2017-07-05T05:05:13.436Z,18.63
2017-07-05T05:06:15.309Z,18.81
2017-07-05T05:07:17.209Z,18.76
2017-07-05T05:08:19.082Z,18.84
2017-07-05T05:09:20.911Z,18.95
2017-07-05T05:10:22.724Z,19.08
2017-07-05T05:11:24.603Z,19.11
2017-07-05T05:12:26.496Z,19.11
2017-07-05T05:13:28.373Z,19.28
2017-07-05T05:14:42.526Z,19.39
2017-07-05T05:15:44.423Z,19.41
2017-07-05T05:16:46.302Z,19.47
2017-07-05T05:17:48.199Z,19.51
2017-07-05T05:18:50.038Z,19.59
2017-07-05T05:19:51.877Z,19.69
2017-07-05T05:20:53.754Z,19.76
2017-07-05T05:21:55.655Z,19.86
2017-07-05T05:22:57.554Z,19.96
2017-07-05T05:24:11.725Z,20.11
2017-07-05T05:25:13.597Z,20.18
2017-07-05T05:26:15.502Z,20.24
2017-07-05T05:27:17.397Z,20.39
2017-07-05T05:28:19.208Z,20.52
2017-07-05T05:29:21.024Z,20.55
2017-07-05T05:30:22.897Z,20.62
2017-07-05T05:31:24.798Z,20.66
2017-07-05T05:32:26.694Z,20.61
2017-07-05T05:33:40.843Z,20.69
2017-07-05T05:34:42.718Z,20.70
2017-07-05T05:35:44.619Z,20.77
2017-07-05T05:36:46.508Z,20.94
2017-07-05T05:37:48.326Z,21.14
2017-07-05T05:38:50.171Z,21.43
2017-07-05T05:39:52.066Z,21.82
2017-07-05T05:40:53.951Z,22.14
2017-07-05T05:41:55.852Z,22.39
2017-07-05T05:43:10.029Z,22.61
2017-07-05T05:44:11.928Z,22.80
2017-07-05T05:45:13.829Z,23.07
2017-07-05T05:46:15.706Z,23.28
2017-07-05T05:47:17.550Z,23.46
2017-07-05T05:48:19.389Z,23.50
2017-07-05T05:49:21.286Z,23.60
2017-07-05T05:50:23.183Z,23.78
2017-07-05T05:51:25.059Z,23.94
2017-07-05T05:52:39.286Z,24.00
2017-07-05T05:53:41.191Z,24.02
2017-07-05T05:54:43.091Z,23.83
2017-07-05T05:55:44.971Z,23.58
2017-07-05T05:56:46.813Z,23.43
2017-07-05T05:57:48.630Z,23.33
2017-07-05T05:58:50.531Z,23.23
2017-07-05T05:59:52.434Z,23.36
2017-07-05T06:00:54.335Z,23.39
2017-07-05T06:02:08.512Z,23.53
2017-07-05T06:03:10.390Z,23.50
2017-07-05T06:04:12.292Z,23.51
2017-07-05T06:05:14.194Z,23.55
2017-07-05T06:06:16.036Z,23.55
2017-07-05T06:07:17.874Z,23.50
2017-07-05T06:08:19.758Z,23.39
2017-07-05T06:09:21.659Z,23.32
2017-07-05T06:10:23.539Z,23.05
2017-07-05T06:11:37.710Z,23.02
2017-07-05T06:12:39.588Z,22.73
2017-07-05T06:13:41.473Z,22.46
2017-07-05T06:14:43.369Z,22.46
2017-07-05T06:15:45.190Z,22.51
2017-07-05T06:16:47.029Z,22.40
2017-07-05T06:17:48.911Z,22.46
2017-07-05T06:18:50.787Z,22.45
2017-07-05T06:19:52.689Z,22.46
2017-07-05T06:21:06.868Z,22.47
2017-07-05T06:22:08.748Z,22.55
2017-07-05T06:23:10.649Z,22.79
2017-07-05T06:24:12.557Z,22.85
2017-07-05T06:25:14.374Z,23.04
2017-07-05T06:26:16.209Z,23.17
2017-07-05T06:27:18.089Z,23.46
2017-07-05T06:28:19.967Z,23.63
2017-07-05T06:29:21.851Z,23.90
2017-07-05T06:30:36.030Z,24.02
2017-07-05T06:31:37.905Z,24.12
2017-07-05T06:32:39.785Z,24.22
2017-07-05T06:33:41.685Z,24.16
2017-07-05T06:34:43.504Z,24.16
2017-07-05T06:35:45.318Z,24.21
2017-07-05T06:36:47.198Z,24.24
2017-07-05T06:37:49.077Z,24.12
2017-07-05T06:38:50.980Z,24.12
2017-07-05T06:40:05.132Z,24.12
2017-07-05T06:41:07.011Z,24.12
2017-07-05T06:42:08.918Z,24.25
2017-07-05T06:43:10.817Z,24.21
2017-07-05T06:44:12.661Z,24.22
2017-07-05T06:45:14.496Z,24.18
2017-07-05T06:46:16.400Z,24.18
2017-07-05T06:47:18.286Z,24.18
2017-07-05T06:48:20.183Z,24.24
2017-07-05T06:49:34.345Z,24.03
2017-07-05T06:50:36.238Z,24.09
2017-07-05T06:51:38.120Z,24.08
2017-07-05T06:52:40.024Z,24.21
2017-07-05T06:53:41.860Z,24.10
2017-07-05T06:54:43.677Z,24.25
2017-07-05T06:55:45.545Z,24.34
2017-07-05T06:56:47.457Z,24.43
2017-07-05T06:57:49.354Z,24.49
2017-07-05T06:59:03.507Z,24.53
2017-07-05T07:00:05.386Z,24.69
2017-07-05T07:01:07.282Z,24.71
2017-07-05T07:02:09.158Z,24.76
2017-07-05T07:03:10.977Z,24.87
2017-07-05T07:04:12.817Z,24.98
2017-07-05T07:05:14.722Z,25.03
2017-07-05T07:06:16.627Z,25.02
2017-07-05T07:07:18.521Z,25.09
2017-07-05T07:08:32.678Z,25.14
2017-07-05T07:09:34.554Z,25.10
2017-07-05T07:10:36.428Z,25.08
2017-07-05T07:11:38.300Z,25.00
2017-07-05T07:12:40.121Z,25.03
2017-07-05T07:13:41.959Z,24.96
2017-07-05T07:14:43.854Z,24.96
2017-07-05T07:15:45.730Z,24.88
2017-07-05T07:16:47.609Z,24.73
2017-07-05T07:18:01.789Z,24.96
2017-07-05T07:19:03.692Z,24.91
2017-07-05T07:20:05.602Z,25.00
2017-07-05T07:21:07.498Z,25.03
2017-07-05T07:22:09.336Z,25.09
2017-07-05T07:23:11.148Z,25.02
2017-07-05T07:24:13.031Z,25.02
2017-07-05T07:25:14.910Z,24.98
2017-07-05T07:26:16.815Z,24.87
2017-07-05T07:27:30.992Z,24.85
2017-07-05T07:28:32.867Z,25.06
2017-07-05T07:29:34.742Z,25.09
2017-07-05T07:30:36.624Z,25.21
2017-07-05T07:31:38.467Z,25.30
2017-07-05T07:32:40.306Z,25.39
2017-07-05T07:33:42.187Z,25.60
2017-07-05T07:34:44.087Z,25.62
2017-07-05T07:35:45.959Z,25.67
2017-07-05T07:37:00.114Z,25.70
2017-07-05T07:38:01.989Z,25.75
2017-07-05T07:39:03.869Z,25.47
2017-07-05T07:40:05.768Z,25.33
2017-07-05T07:41:07.614Z,25.38
2017-07-05T07:42:09.455Z,25.33
2017-07-05T07:43:11.362Z,25.39
2017-07-05T07:44:13.264Z,25.52
2017-07-05T07:45:15.143Z,25.60
2017-07-05T07:46:29.295Z,25.61
2017-07-05T07:47:31.173Z,25.77
2017-07-05T07:48:33.078Z,25.79
2017-07-05T07:49:34.984Z,26.05
2017-07-05T07:50:36.823Z,26.30
2017-07-05T07:51:38.663Z,26.54
2017-07-05T07:52:40.548Z,26.67
2017-07-05T07:53:42.456Z,26.77
2017-07-05T07:54:44.364Z,26.91
2017-07-05T07:55:58.516Z,27.17
2017-07-05T07:57:00.397Z,27.29
2017-07-05T07:58:02.304Z,27.39
2017-07-05T07:59:04.255Z,27.59
2017-07-05T08:00:06.025Z,27.69
2017-07-05T08:01:07.841Z,27.84
2017-07-05T08:02:09.724Z,28.09
2017-07-05T08:03:11.627Z,28.17
2017-07-05T08:04:13.535Z,28.40
2017-07-05T08:05:27.713Z,28.58
2017-07-05T08:06:29.627Z,28.58
2017-07-05T08:07:31.507Z,28.58
2017-07-05T08:08:33.382Z,28.68
2017-07-05T08:09:35.211Z,28.71
2017-07-05T08:10:37.047Z,28.74
2017-07-05T08:11:38.931Z,28.77
2017-07-05T08:12:40.832Z,28.74
2017-07-05T08:13:42.714Z,28.95
2017-07-05T08:14:56.874Z,28.96
2017-07-05T08:15:58.756Z,28.89
2017-07-05T08:17:00.657Z,28.95
2017-07-05T08:18:02.545Z,28.98
2017-07-05T08:19:04.391Z,28.78
2017-07-05T08:20:06.234Z,28.56
2017-07-05T08:21:08.136Z,28.41
2017-07-05T08:22:10.017Z,28.41
2017-07-05T08:23:11.898Z,28.51
2017-07-05T08:24:26.077Z,28.56
2017-07-05T08:25:27.965Z,28.54
2017-07-05T08:26:29.868Z,28.40
2017-07-05T08:27:31.768Z,28.54
2017-07-05T08:28:33.586Z,28.68
2017-07-05T08:29:35.414Z,28.73
2017-07-05T08:30:37.311Z,28.88
2017-07-05T08:31:39.199Z,28.83
2017-07-05T08:32:41.103Z,28.96
2017-07-05T08:33:55.289Z,29.15
2017-07-05T08:34:57.168Z,29.33
2017-07-05T08:35:59.071Z,29.45
2017-07-05T08:37:00.975Z,29.61
2017-07-05T08:38:02.818Z,29.68
2017-07-05T08:39:04.638Z,29.64
2017-07-05T08:40:06.520Z,29.46
2017-07-05T08:41:08.403Z,29.51
2017-07-05T08:42:10.305Z,29.48
2017-07-05T08:43:24.467Z,29.46
2017-07-05T08:44:26.353Z,29.21
2017-07-05T08:45:28.250Z,28.86
2017-07-05T08:46:30.135Z,28.62
2017-07-05T08:47:31.973Z,28.67
2017-07-05T08:48:33.793Z,28.70
2017-07-05T08:49:35.675Z,28.49
2017-07-05T08:50:37.555Z,28.44
2017-07-05T08:51:39.434Z,28.54
2017-07-05T08:52:53.597Z,28.68
2017-07-05T08:53:55.477Z,28.74
2017-07-05T08:54:57.382Z,28.66
2017-07-05T08:55:59.264Z,28.51
2017-07-05T08:57:01.102Z,28.31
2017-07-05T08:58:02.929Z,28.34
2017-07-05T08:59:04.811Z,28.30
2017-07-05T09:00:06.721Z,28.19
2017-07-05T09:01:08.624Z,27.94
2017-07-05T09:02:22.781Z,27.54
2017-07-05T09:03:24.688Z,27.13
2017-07-05T09:04:26.567Z,27.02
2017-07-05T09:05:28.470Z,26.88
2017-07-05T09:06:30.312Z,26.82
2017-07-05T09:07:32.155Z,26.92
2017-07-05T09:08:34.035Z,26.94
2017-07-05T09:09:35.939Z,26.97
2017-07-05T09:10:37.822Z,27.00
2017-07-05T09:11:51.976Z,26.87
2017-07-05T09:12:53.858Z,26.72
2017-07-05T09:13:55.756Z,26.58
2017-07-05T09:14:57.636Z,26.63
2017-07-05T09:15:59.475Z,26.81
2017-07-05T09:17:01.294Z,26.87
2017-07-05T09:18:03.172Z,26.85
2017-07-05T09:19:05.078Z,26.95
2017-07-05T09:20:06.979Z,27.04
2017-07-05T09:21:21.133Z,27.14
2017-07-05T09:22:23.016Z,27.21
2017-07-05T09:23:24.922Z,27.41
2017-07-05T09:24:26.829Z,27.39
2017-07-05T09:25:28.674Z,27.29
2017-07-05T09:26:30.491Z,27.24
2017-07-05T09:27:32.397Z,27.06
2017-07-05T09:28:34.277Z,27.10
2017-07-05T09:29:36.156Z,27.19
2017-07-05T09:30:50.313Z,27.36
2017-07-05T09:31:52.218Z,27.59
2017-07-05T09:32:54.094Z,27.74
2017-07-05T09:33:55.974Z,27.87
2017-07-05T09:34:57.794Z,27.96
2017-07-05T09:35:59.637Z,27.97
2017-07-05T09:37:01.516Z,27.96
2017-07-05T09:38:03.416Z,27.99
2017-07-05T09:39:05.300Z,27.97
2017-07-05T09:40:19.480Z,28.03
2017-07-05T09:41:21.360Z,28.00
2017-07-05T09:42:23.264Z,27.93
2017-07-05T09:43:25.145Z,27.94
2017-07-05T09:44:26.984Z,27.96
2017-07-05T09:45:28.806Z,27.92
2017-07-05T09:46:30.713Z,27.82
2017-07-05T09:47:32.616Z,27.81
2017-07-05T09:48:34.523Z,27.92
2017-07-05T09:49:48.701Z,27.99
2017-07-05T09:50:50.608Z,28.12
2017-07-05T09:51:52.509Z,28.17
2017-07-05T09:52:54.389Z,28.41
2017-07-05T09:53:56.215Z,28.51
2017-07-05T09:54:58.093Z,28.71
2017-07-05T09:56:00.012Z,28.83
2017-07-05T09:57:01.910Z,28.96
2017-07-05T09:58:03.801Z,29.21
2017-07-05T09:59:17.960Z,29.31
2017-07-05T10:00:19.838Z,29.46
2017-07-05T10:01:21.740Z,29.58
2017-07-05T10:02:23.621Z,29.61
2017-07-05T10:03:25.440Z,29.74
2017-07-05T10:04:27.254Z,29.78
2017-07-05T10:05:29.135Z,29.74
2017-07-05T10:06:31.014Z,29.68
2017-07-05T10:07:32.918Z,29.58
2017-07-05T10:08:47.100Z,29.57
2017-07-05T10:09:49.003Z,29.41
2017-07-05T10:10:50.905Z,29.16
2017-07-05T10:11:52.802Z,29.00
2017-07-05T10:12:54.618Z,28.86
2017-07-05T10:13:56.438Z,28.64
2017-07-05T10:14:58.321Z,28.39
2017-07-05T10:16:00.197Z,28.19
2017-07-05T10:17:02.073Z,28.00
2017-07-05T10:18:16.228Z,27.69
2017-07-05T10:19:18.108Z,27.28
2017-07-05T10:20:20.009Z,26.99
2017-07-05T10:21:21.887Z,26.87
2017-07-05T10:22:23.706Z,26.76
2017-07-05T10:23:25.519Z,26.72
2017-07-05T10:24:27.399Z,26.51
2017-07-05T10:25:29.285Z,26.25
2017-07-05T10:26:31.190Z,25.94
2017-07-05T10:27:45.371Z,25.72
2017-07-05T10:28:47.281Z,25.72
2017-07-05T10:29:49.180Z,25.70
2017-07-05T10:30:51.083Z,25.64
2017-07-05T10:31:52.925Z,25.57
2017-07-05T10:32:54.766Z,25.51
2017-07-05T10:33:56.669Z,25.47
2017-07-05T10:34:58.547Z,25.45
2017-07-05T10:36:00.423Z,25.46
2017-07-05T10:37:14.584Z,25.50
2017-07-05T10:38:16.492Z,25.52
2017-07-05T10:39:18.402Z,25.51
2017-07-05T10:40:20.298Z,25.36
2017-07-05T10:41:22.144Z,25.38
2017-07-05T10:42:23.984Z,25.39
2017-07-05T10:43:25.868Z,25.35
2017-07-05T10:44:27.769Z,25.38
2017-07-05T10:45:29.673Z,25.45
2017-07-05T10:46:43.827Z,25.58
2017-07-05T10:47:45.736Z,25.55
2017-07-05T10:48:47.620Z,25.55
2017-07-05T10:49:49.498Z,25.58
2017-07-05T10:50:51.348Z,25.35
2017-07-05T10:51:53.186Z,25.23
2017-07-05T10:52:55.095Z,25.10
2017-07-05T10:53:56.998Z,25.05
2017-07-05T10:54:58.908Z,25.00
2017-07-05T10:56:13.083Z,25.05
2017-07-05T10:57:14.962Z,25.02
2017-07-05T10:58:16.863Z,24.93
2017-07-05T10:59:18.738Z,24.76
2017-07-05T11:00:20.580Z,24.83
2017-07-05T11:01:22.404Z,24.93
2017-07-05T11:02:24.344Z,25.00
2017-07-05T11:03:26.210Z,24.99
2017-07-05T11:04:28.109Z,24.87
2017-07-05T11:05:42.276Z,24.80
2017-07-05T11:06:44.144Z,24.71
2017-07-05T11:07:46.045Z,24.73
2017-07-05T11:08:47.946Z,24.73
2017-07-05T11:09:49.770Z,24.52
2017-07-05T11:10:51.611Z,24.71
2017-07-05T11:11:53.485Z,24.81
2017-07-05T11:12:55.369Z,24.77
2017-07-05T11:13:57.274Z,24.71
2017-07-05T11:15:11.453Z,24.69
2017-07-05T11:16:13.335Z,24.58
2017-07-05T11:17:15.237Z,24.78
2017-07-05T11:18:17.136Z,25.08
2017-07-05T11:19:18.959Z,25.17
2017-07-05T11:20:20.804Z,25.21
2017-07-05T11:21:22.710Z,25.27
2017-07-05T11:22:24.612Z,25.24
2017-07-05T11:23:26.494Z,25.45
2017-07-05T11:24:40.652Z,25.69
2017-07-05T11:25:42.554Z,26.02
2017-07-05T11:26:44.437Z,26.29
2017-07-05T11:27:46.342Z,26.63
2017-07-05T11:28:48.192Z,26.75
2017-07-05T11:29:50.035Z,26.87
2017-07-05T11:30:51.937Z,27.03
2017-07-05T11:31:53.820Z,27.27
2017-07-05T11:32:55.698Z,27.47
2017-07-05T11:34:09.855Z,27.75
2017-07-05T11:35:11.762Z,28.04
2017-07-05T11:36:13.643Z,28.31
2017-07-05T11:37:15.523Z,28.71
2017-07-05T11:38:17.366Z,28.81
2017-07-05T11:39:19.209Z,29.04
2017-07-05T11:40:21.087Z,29.24
2017-07-05T11:41:22.971Z,29.11
2017-07-05T11:42:24.880Z,28.80
2017-07-05T11:43:39.137Z,28.74
2017-07-05T11:44:41.070Z,28.71
2017-07-05T11:45:42.976Z,28.78
2017-07-05T11:46:44.879Z,28.61
2017-07-05T11:47:46.727Z,28.34
2017-07-05T11:48:48.572Z,28.14
2017-07-05T11:49:50.481Z,28.00
2017-07-05T11:50:52.385Z,27.69
2017-07-05T11:51:54.267Z,27.31
2017-07-05T11:53:08.423Z,27.02
2017-07-05T11:54:10.310Z,26.94
2017-07-05T11:55:12.209Z,26.82
2017-07-05T11:56:14.091Z,26.97
2017-07-05T11:57:15.915Z,27.03
2017-07-05T11:58:17.762Z,27.02
2017-07-05T11:59:19.666Z,27.04
2017-07-05T12:00:21.549Z,26.87
2017-07-05T12:01:23.432Z,26.72
2017-07-05T12:02:37.610Z,26.47
2017-07-05T12:03:39.491Z,26.37
2017-07-05T12:04:41.397Z,26.47
2017-07-05T12:05:43.276Z,26.57
2017-07-05T12:06:45.105Z,26.58
2017-07-05T12:07:46.918Z,26.55
2017-07-05T12:08:48.825Z,26.62
2017-07-05T12:09:50.731Z,26.60
2017-07-05T12:10:52.636Z,26.60
2017-07-05T12:12:06.812Z,26.72
2017-07-05T12:13:08.689Z,26.89
2017-07-05T12:14:10.572Z,26.92
2017-07-05T12:15:12.472Z,27.07
2017-07-05T12:16:14.294Z,27.02
2017-07-05T12:17:16.148Z,27.10
2017-07-05T12:18:18.030Z,27.28
2017-07-05T12:19:19.911Z,27.24
2017-07-05T12:20:21.789Z,27.10
2017-07-05T12:21:35.972Z,27.07
2017-07-05T12:22:37.846Z,26.99
2017-07-05T12:23:39.727Z,27.28
2017-07-05T12:24:41.634Z,27.47
2017-07-05T12:25:43.476Z,27.46
2017-07-05T12:26:45.316Z,27.46
2017-07-05T12:27:47.200Z,27.27
2017-07-05T12:28:49.112Z,27.27
2017-07-05T12:29:51.012Z,27.27
2017-07-05T12:31:05.200Z,27.13
2017-07-05T12:32:07.109Z,27.18
2017-07-05T12:33:09.017Z,27.29
2017-07-05T12:34:10.944Z,27.40
2017-07-05T12:35:12.764Z,27.50
2017-07-05T12:36:14.576Z,27.44
2017-07-05T12:37:16.458Z,27.40
2017-07-05T12:38:18.344Z,27.37
2017-07-05T12:39:20.244Z,27.32
2017-07-05T12:40:34.450Z,27.31
2017-07-05T12:41:36.335Z,27.51
2017-07-05T12:42:38.241Z,27.54
2017-07-05T12:43:40.154Z,27.70
2017-07-05T12:44:41.987Z,27.82
2017-07-05T12:45:43.831Z,27.81
2017-07-05T12:46:45.739Z,27.82
2017-07-05T12:47:47.645Z,27.84
2017-07-05T12:48:49.525Z,27.70
2017-07-05T12:50:03.706Z,27.51
2017-07-05T12:51:05.617Z,27.24
2017-07-05T12:52:07.523Z,27.09
2017-07-05T12:53:09.429Z,27.03
2017-07-05T12:54:11.248Z,27.12
2017-07-05T12:55:13.090Z,27.03
2017-07-05T12:56:15.001Z,27.00
2017-07-05T12:57:16.902Z,27.10
2017-07-05T12:58:18.782Z,27.31
2017-07-05T12:59:32.946Z,27.18
2017-07-05T13:00:34.855Z,27.03
2017-07-05T13:01:36.761Z,26.85
2017-07-05T13:02:38.639Z,26.72
2017-07-05T13:03:40.473Z,26.76
2017-07-05T13:04:42.316Z,26.73
2017-07-05T13:05:44.323Z,26.77
2017-07-05T13:06:46.226Z,26.88
2017-07-05T13:07:48.131Z,26.85
2017-07-05T13:09:02.309Z,26.92
2017-07-05T13:10:04.192Z,27.02
2017-07-05T13:11:06.103Z,27.02
2017-07-05T13:12:08.000Z,27.06
2017-07-05T13:13:09.821Z,27.25
2017-07-05T13:14:11.643Z,27.36
2017-07-05T13:15:13.521Z,27.28
2017-07-05T13:16:15.405Z,27.06
2017-07-05T13:17:17.284Z,27.04
2017-07-05T13:18:31.492Z,27.07
2017-07-05T13:19:33.373Z,27.04
2017-07-05T13:20:35.279Z,27.06
2017-07-05T13:21:37.158Z,26.82
2017-07-05T13:22:38.982Z,26.84
2017-07-05T13:23:40.802Z,26.82
2017-07-05T13:24:42.704Z,26.89
2017-07-05T13:25:44.588Z,26.97
2017-07-05T13:26:46.495Z,27.04
2017-07-05T13:28:00.696Z,26.91
2017-07-05T13:29:02.558Z,26.99
2017-07-05T13:30:04.435Z,26.85
2017-07-05T13:31:06.322Z,26.89
2017-07-05T13:32:08.160Z,26.91
2017-07-05T13:33:09.985Z,26.89
2017-07-05T13:34:11.891Z,26.57